Terminal Aerodrome Forecast
Issued by NWS

Home | Current Version | Previous Version | Text Only | Print | Product List | Glossary On
Versions: 1 2 3 4 5 6 7 8 9 10 11 12 13 14 15 16
000
FTUS45 KRIW 300500
TAFLND
TAF
KLND 300534Z 3006/0106 25006KT P6SM SCT100
     FM301900 26006KT P6SM VCSH SCT050 BKN080
     FM010200 25010KT P6SM SCT090=

USA.gov is the U.S. government's official web portal to all federal, state and local government web resources and services.